From 03/10/2019 00:00 to 03/26/2019 00:00

Date LAKE ELEVATION [FT] PRECIPITATION INCREMENT [IN] PRECIPITATION TOTAL [IN] AIR TEMPERATURE [F] RELATIVE HUMIDITY [%] RELEASE [CFS]
03/24/2019 06:00 -- -- -- -- -- 93.0
03/24/2019 05:00 115.16 0.00 -- 29.0 -- 93.3
03/24/2019 04:00 115.16 0.00 -- 30.0 -- 93.3
03/24/2019 03:00 115.16 0.00 -- 30.0 -- 93.8
03/24/2019 02:00 115.17 0.00 -- 33.0 -- 94.0
03/24/2019 01:00 115.17 0.00 -- 33.0 -- 94.0
03/24/2019 00:00 115.17 0.00 -- 34.0 -- 94.8
03/23/2019 23:00 115.18 0.00 -- 35.0 -- 96.0
03/23/2019 22:00 115.18 0.00 -- 36.0 -- 96.5
03/23/2019 21:00 115.19 0.00 -- 37.0 -- 96.5
03/23/2019 20:00 115.17 0.00 -- 38.0 -- 95.8
03/23/2019 19:00 115.19 0.00 -- 40.0 -- 97.0
03/23/2019 18:00 115.19 0.00 -- 42.0 -- 97.8
03/23/2019 17:00 115.21 0.00 -- 42.0 -- 99.3
03/23/2019 16:00 115.21 0.00 -- 41.0 -- 100.5
03/23/2019 15:00 115.20 0.00 -- 41.0 -- 98.5
03/23/2019 14:00 115.20 0.00 -- 42.0 -- 99.5
03/23/2019 13:00 115.19 0.00 -- 41.0 -- 99.8
03/23/2019 12:00 115.20 0.00 -- 39.0 -- 101.0
03/23/2019 11:00 115.23 0.03 -- 38.0 -- 102.0
03/23/2019 10:00 115.20 0.00 -- 37.0 -- 100.3
03/23/2019 09:00 115.18 0.00 -- 36.0 -- 98.8
03/23/2019 08:00 115.20 0.00 -- 35.0 -- 99.0
03/23/2019 07:00 115.22 0.00 -- 36.0 -- 100.0
03/23/2019 06:00 115.18 0.00 -- 37.0 -- 97.0
03/23/2019 05:00 115.19 0.00 -- 35.0 -- 98.0
03/23/2019 04:00 115.18 0.00 -- 37.0 -- 96.8
03/23/2019 03:00 115.19 0.00 -- 36.0 -- 96.0
03/23/2019 02:00 115.18 0.01 -- 37.0 -- 95.8
03/23/2019 01:00 115.18 0.00 -- 36.0 -- 95.0
03/23/2019 00:00 115.17 0.01 0.04 36.0 -- 94.8
03/22/2019 23:00 115.18 0.01 -- 37.0 -- 96.0
03/22/2019 22:00 115.16 0.00 -- 37.0 -- 94.0
03/22/2019 21:00 115.18 0.00 -- 37.0 -- 95.5
03/22/2019 20:00 115.17 0.00 -- 38.0 -- 94.8
03/22/2019 19:00 115.17 0.01 -- 38.0 -- 94.0
03/22/2019 18:00 115.17 0.00 -- 39.0 -- 95.3
03/22/2019 17:00 115.18 0.00 -- 40.0 -- 95.0
03/22/2019 16:00 115.17 0.00 -- 40.0 -- 94.3
03/22/2019 15:00 115.17 0.01 -- 39.0 -- 93.5
03/22/2019 14:00 115.16 0.00 -- 39.0 -- 94.0
03/22/2019 13:00 115.15 0.00 -- 39.0 -- 92.8
03/22/2019 12:00 115.15 0.00 -- 37.0 -- 92.3
03/22/2019 11:00 115.16 0.00 -- 37.0 -- 92.0
03/22/2019 10:00 115.15 0.11 -- 36.0 -- 91.0
03/22/2019 09:00 115.14 0.05 -- 35.0 -- 89.8
03/22/2019 08:00 115.13 0.07 -- 36.0 -- 88.5
03/22/2019 07:00 115.12 0.06 -- 37.0 -- 88.0
03/22/2019 06:00 115.12 0.05 -- 37.0 -- 87.5
03/22/2019 05:00 115.13 0.00 -- 38.0 -- 87.5
03/22/2019 04:00 115.13 0.00 -- 37.0 -- 89.0
03/22/2019 03:00 115.13 0.00 -- 38.0 -- 88.8
03/22/2019 02:00 115.13 0.00 -- 38.0 -- 89.0
03/22/2019 01:00 115.13 0.00 -- 38.0 -- 89.0
03/22/2019 00:00 115.13 0.00 0.38 38.0 -- 88.5
03/21/2019 23:00 115.13 0.00 -- 39.0 -- 89.0
03/21/2019 22:00 115.14 0.00 -- 39.0 -- 89.3
03/21/2019 21:00 115.13 0.00 -- 39.0 -- 89.0
03/21/2019 20:00 115.13 0.00 -- 40.0 -- 89.3
03/21/2019 19:00 115.14 0.00 -- 41.0 -- 89.0
03/21/2019 18:00 115.13 0.00 -- 44.0 -- 89.3
03/21/2019 17:00 115.14 0.00 -- 46.0 -- 88.8
03/21/2019 16:00 115.13 0.00 -- 47.0 -- 89.0
03/21/2019 15:00 115.14 0.00 -- 48.0 -- 89.8
03/21/2019 14:00 115.14 0.00 -- 48.0 -- 90.3
03/21/2019 13:00 115.14 0.00 -- 48.0 -- 90.3
03/21/2019 12:00 115.14 0.00 -- 49.0 -- 90.5
03/21/2019 11:00 115.15 0.00 -- 47.0 -- 90.8
03/21/2019 10:00 115.14 0.00 -- 45.0 -- 90.8
03/21/2019 09:00 115.14 0.00 -- 41.0 -- 90.5
03/21/2019 08:00 115.14 0.00 -- 35.0 -- 91.0
03/21/2019 07:00 115.15 0.00 -- 30.0 -- 91.5
03/21/2019 06:00 115.15 0.00 -- 31.0 -- 91.8
03/21/2019 05:00 115.15 0.00 -- 34.0 -- 91.8
03/21/2019 04:00 115.15 0.00 -- 34.0 -- 92.0
03/21/2019 03:00 115.15 0.00 -- 35.0 -- 92.5
03/21/2019 02:00 115.16 0.00 -- 37.0 -- 92.8
03/21/2019 01:00 115.16 0.00 -- 38.0 -- 93.0
03/21/2019 00:00 115.16 0.00 0.00 39.0 -- 93.5
03/20/2019 23:00 115.17 0.00 -- 41.0 -- 94.0
03/20/2019 22:00 115.16 0.00 -- 42.0 -- 93.5
03/20/2019 21:00 115.16 0.00 -- 41.0 -- 94.3
03/20/2019 20:00 115.17 0.00 -- 36.0 -- 94.0
03/20/2019 19:00 115.17 0.00 -- 42.0 -- 93.8
03/20/2019 18:00 115.17 0.00 -- 45.0 -- 93.8
03/20/2019 17:00 115.16 0.00 -- 46.0 -- 93.8
03/20/2019 16:00 115.17 0.00 -- 46.0 -- 94.5
03/20/2019 15:00 115.18 0.00 -- 48.0 -- 96.0
03/20/2019 14:00 115.17 0.00 -- 47.0 -- 96.0
03/20/2019 13:00 115.18 0.00 -- 45.0 -- 95.5
03/20/2019 12:00 115.18 0.00 -- 44.0 -- 96.0
03/20/2019 11:00 115.18 0.00 -- 41.0 -- 96.0
03/20/2019 10:00 115.18 0.00 -- 37.0 -- 96.0
03/20/2019 09:00 115.18 0.00 -- 31.0 -- 96.3
03/20/2019 08:00 115.18 0.00 -- 24.0 -- 96.0
03/20/2019 07:00 115.18 0.00 -- 19.0 -- 96.5
03/20/2019 06:00 115.18 0.00 -- 20.0 -- 96.5
03/20/2019 05:00 115.18 0.00 -- 20.0 -- 97.0
03/20/2019 04:00 115.18 0.00 -- 21.0 -- 97.3
03/20/2019 03:00 115.19 0.00 -- 22.0 -- 97.8
03/20/2019 02:00 115.19 0.00 -- 23.0 -- 97.5
03/20/2019 01:00 115.19 0.00 -- 24.0 -- 97.8
03/20/2019 00:00 115.19 0.00 0.00 25.0 -- 98.0
03/19/2019 23:00 115.19 0.00 -- 26.0 -- 98.5
03/19/2019 22:00 115.20 0.00 -- 27.0 -- 99.0
03/19/2019 21:00 115.19 0.00 -- 30.0 -- 98.8
03/19/2019 20:00 115.20 0.00 -- 33.0 -- 99.5
03/19/2019 19:00 115.20 0.00 -- 38.0 -- 99.8
03/19/2019 18:00 115.21 0.00 -- 41.0 -- 100.5
03/19/2019 17:00 115.21 0.00 -- 42.0 -- 100.3
03/19/2019 16:00 115.20 0.00 -- 41.0 -- 99.8
03/19/2019 15:00 115.20 0.00 -- 39.0 -- 100.3
03/19/2019 14:00 115.21 0.00 -- 38.0 -- 100.3
03/19/2019 13:00 115.20 0.00 -- 38.0 -- 100.5
03/19/2019 12:00 115.20 0.00 -- 37.0 -- 99.3
03/19/2019 11:00 115.21 0.00 -- 35.0 -- 100.5
03/19/2019 10:00 115.20 0.00 -- 33.0 -- 99.8
03/19/2019 09:00 115.20 0.00 -- 31.0 -- 100.0
03/19/2019 08:00 115.20 0.00 -- 25.0 -- 99.5
03/19/2019 07:00 115.20 0.00 -- 22.0 -- 99.5
03/19/2019 06:00 115.20 0.00 -- 22.0 -- 99.0
03/19/2019 05:00 115.20 0.00 -- 21.0 -- 99.3
03/19/2019 04:00 115.20 0.00 -- 21.0 -- 99.8
03/19/2019 03:00 115.20 0.00 -- 22.0 -- 99.8
03/19/2019 02:00 115.20 0.00 -- 24.0 -- 99.0
03/19/2019 01:00 115.20 0.00 -- 24.0 -- 99.0
03/19/2019 00:00 115.20 0.00 0.00 25.0 -- 99.3
03/18/2019 23:00 115.20 0.00 -- 26.0 -- 99.0
03/18/2019 22:00 115.20 0.00 -- 27.0 -- 99.0
03/18/2019 21:00 115.20 0.00 -- 29.0 -- 99.0
03/18/2019 20:00 115.20 0.00 -- 31.0 -- 99.3
03/18/2019 19:00 115.20 0.00 -- 36.0 -- 99.5
03/18/2019 18:00 115.20 0.00 -- 38.0 -- 101.0
03/18/2019 17:00 115.20 0.00 -- 39.0 -- 99.8
03/18/2019 16:00 115.19 0.00 -- 38.0 -- 99.0
03/18/2019 15:00 115.20 0.00 -- 37.0 -- 98.8
03/18/2019 14:00 115.20 0.00 -- 36.0 -- 99.3
03/18/2019 13:00 115.21 0.00 -- 35.0 -- 99.3
03/18/2019 12:00 115.19 0.00 -- 33.0 -- 97.5
03/18/2019 11:00 115.20 0.00 -- 33.0 -- 98.3
03/18/2019 10:00 115.19 0.00 -- 31.0 -- 97.8
03/18/2019 09:00 115.18 0.00 -- 29.0 -- 96.3
03/18/2019 08:00 115.17 0.00 -- 26.0 -- 95.0
03/18/2019 07:00 115.17 0.00 -- 23.0 -- 95.0
03/18/2019 06:00 115.17 0.00 -- 24.0 -- 95.0
03/18/2019 05:00 115.17 0.00 -- 24.0 -- 94.8
03/18/2019 04:00 115.17 0.00 -- 24.0 -- 94.3
03/18/2019 03:00 115.16 0.00 -- 25.0 -- 93.3
03/18/2019 02:00 115.16 0.00 -- 27.0 -- 93.3
03/18/2019 01:00 115.16 0.00 -- 30.0 -- 93.5
03/18/2019 00:00 115.16 0.00 0.00 31.0 -- 92.5
03/17/2019 23:00 115.15 0.00 -- 31.0 -- 91.5
03/17/2019 22:00 115.15 0.00 -- 30.0 -- 91.0
03/17/2019 21:00 115.14 0.00 -- 30.0 -- 90.8
03/17/2019 20:00 115.14 0.00 -- 31.0 -- 90.5
03/17/2019 19:00 115.15 0.00 -- 35.0 -- 90.5
03/17/2019 18:00 115.15 0.00 -- 36.0 -- 90.5
03/17/2019 17:00 115.13 0.00 -- 38.0 -- 88.5
03/17/2019 16:00 115.12 0.00 -- 37.0 -- 88.8
03/17/2019 15:00 115.13 0.00 -- 36.0 -- 88.8
03/17/2019 14:00 115.13 0.00 -- 36.0 -- 87.3
03/17/2019 13:00 115.13 0.00 -- 33.0 -- 87.0
03/17/2019 12:00 115.11 0.00 -- 33.0 -- 86.5
03/17/2019 11:00 115.10 0.00 -- 32.0 -- 84.3
03/17/2019 10:00 115.10 0.00 -- 31.0 -- 83.8
03/17/2019 09:00 115.10 0.00 -- 30.0 -- 83.5
03/17/2019 08:00 115.09 0.00 -- 30.0 -- 82.8
03/17/2019 07:00 115.10 0.00 -- 30.0 -- 82.3
03/17/2019 06:00 115.09 0.00 -- 30.0 -- 81.8
03/17/2019 05:00 115.08 0.00 -- 31.0 -- 80.5
03/17/2019 04:00 115.08 0.00 -- 32.0 -- 79.3
03/17/2019 03:00 115.06 0.00 -- 32.0 -- 78.8
03/17/2019 02:00 115.06 0.00 -- 32.0 -- 77.5
03/17/2019 01:00 115.05 0.00 -- 33.0 -- 76.5
03/17/2019 00:00 115.05 0.00 0.00 33.0 -- 76.3
03/16/2019 23:00 115.05 0.00 -- 32.0 -- 75.8
03/16/2019 22:00 115.04 0.00 -- 35.0 -- 74.8
03/16/2019 21:00 115.04 0.00 -- 36.0 -- 74.8
03/16/2019 20:00 115.04 0.00 -- 37.0 -- 74.8
03/16/2019 19:00 115.03 0.00 -- 39.0 -- 73.3
03/16/2019 18:00 115.03 0.00 -- 40.0 -- 72.8
03/16/2019 17:00 115.01 0.00 -- 42.0 -- 72.0
03/16/2019 16:00 115.00 0.00 -- 44.0 -- 70.8
03/16/2019 15:00 115.01 0.00 -- 44.0 -- 69.8
03/16/2019 14:00 114.99 0.00 -- 45.0 -- 69.3
03/16/2019 13:00 115.00 0.00 -- 45.0 -- 68.5
03/16/2019 12:00 114.99 0.00 -- 46.0 -- 67.0
03/16/2019 11:00 114.98 0.02 -- 46.0 -- 67.3
03/16/2019 10:00 114.95 0.00 -- 45.0 -- 63.8
03/16/2019 09:00 114.95 0.00 -- 46.0 -- 63.0
03/16/2019 08:00 114.94 0.00 -- 42.0 -- 62.3
03/16/2019 07:00 114.94 0.00 -- 40.0 -- 61.5
03/16/2019 06:00 114.94 0.00 -- 43.0 -- 60.8
03/16/2019 05:00 114.93 0.00 -- 42.0 -- 60.0
03/16/2019 04:00 114.92 0.00 -- 41.0 -- 59.0
03/16/2019 03:00 114.92 0.00 -- 44.0 -- 58.3
03/16/2019 02:00 114.91 0.00 -- 49.0 -- 57.3
03/16/2019 01:00 114.89 0.00 -- 51.0 -- 56.3
03/16/2019 00:00 114.89 0.02 0.02 51.0 -- 55.0
03/15/2019 23:00 114.88 0.21 -- 52.0 -- 53.5
03/15/2019 22:00 114.86 0.13 -- 53.0 -- 50.8
03/15/2019 21:00 114.84 0.00 -- 54.0 -- 50.0
03/15/2019 20:00 114.83 0.00 -- 55.0 -- 49.3
03/15/2019 19:00 114.83 0.00 -- 59.0 -- 49.0
03/15/2019 18:00 114.82 0.00 -- 62.0 -- 48.8
03/15/2019 17:00 114.82 0.00 -- 62.0 -- 48.0
03/15/2019 16:00 114.82 0.00 -- 62.0 -- 47.3
03/15/2019 15:00 114.80 0.00 -- 60.0 -- 47.0
03/15/2019 14:00 114.81 0.00 -- 59.0 -- 46.5
03/15/2019 13:00 114.80 0.02 -- 56.0 -- 46.0
03/15/2019 12:00 114.79 0.00 -- 58.0 -- 45.5
03/15/2019 11:00 114.79 0.00 -- 55.0 -- 45.0
03/15/2019 10:00 114.79 0.00 -- 45.0 -- 45.3
03/15/2019 09:00 114.79 0.00 -- 39.0 -- 45.0
03/15/2019 08:00 114.79 0.00 -- 40.0 -- 45.0
03/15/2019 07:00 114.78 0.00 -- 42.0 -- 45.0
03/15/2019 06:00 114.78 0.00 -- 38.0 -- 45.0
03/15/2019 05:00 114.78 0.00 -- 36.0 -- 45.0
03/15/2019 04:00 114.78 0.00 -- 36.0 -- 45.0
03/15/2019 03:00 114.78 0.00 -- 38.0 -- 44.5
03/15/2019 02:00 114.78 0.00 -- 38.0 -- 44.5
03/15/2019 01:00 114.77 0.00 -- 36.0 -- 44.0
03/15/2019 00:00 114.78 0.00 0.38 34.0 -- 44.0
03/14/2019 23:00 114.77 0.00 -- 36.0 -- 44.0
03/14/2019 22:00 114.77 0.00 -- 36.0 -- 44.0
03/14/2019 21:00 114.77 0.00 -- 37.0 -- 44.0
03/14/2019 20:00 114.77 0.00 -- 37.0 -- 44.0
03/14/2019 19:00 114.77 0.00 -- 41.0 -- 44.0
03/14/2019 18:00 114.77 0.00 -- 44.0 -- 43.3
03/14/2019 17:00 114.77 0.00 -- 44.0 -- 43.5
03/14/2019 16:00 114.76 0.00 -- 45.0 -- 43.0
03/14/2019 15:00 114.76 0.00 -- 47.0 -- 43.0
03/14/2019 14:00 114.77 0.00 -- 46.0 -- 43.0
03/14/2019 13:00 114.76 0.00 -- 44.0 -- 43.0
03/14/2019 12:00 114.76 0.00 -- 42.0 -- 43.0
03/14/2019 11:00 114.76 0.00 -- 40.0 -- 43.0
03/14/2019 10:00 114.76 0.00 -- 38.0 -- 43.0
03/14/2019 09:00 114.76 0.00 -- 35.0 -- 43.0
03/14/2019 08:00 114.76 0.00 -- 33.0 -- 43.0
03/14/2019 07:00 114.76 0.00 -- 33.0 -- 43.0
03/14/2019 06:00 114.76 0.00 -- 33.0 -- 43.0
03/14/2019 05:00 114.76 0.00 -- 33.0 -- 42.8
03/14/2019 04:00 114.76 0.00 -- 33.0 -- 43.0
03/14/2019 03:00 114.76 0.00 -- 34.0 -- 42.8
03/14/2019 02:00 114.76 0.00 -- 33.0 -- 42.8
03/14/2019 01:00 114.75 0.00 -- 34.0 -- 42.3
03/14/2019 00:00 114.75 0.00 0.00 34.0 -- 42.0
03/13/2019 23:00 114.75 0.00 -- 34.0 -- 42.0
03/13/2019 22:00 114.75 0.00 -- 34.0 -- 42.0
03/13/2019 21:00 114.75 0.00 -- 35.0 -- 42.0
03/13/2019 20:00 114.75 0.00 -- 35.0 -- 42.0
03/13/2019 19:00 114.75 0.00 -- 36.0 -- 42.0
03/13/2019 18:00 114.75 0.00 -- 38.0 -- 42.0
03/13/2019 17:00 114.75 0.00 -- 40.0 -- 42.0
03/13/2019 16:00 114.74 0.00 -- 41.0 -- 42.0
03/13/2019 15:00 114.74 0.00 -- 41.0 -- 41.5
03/13/2019 14:00 114.74 0.00 -- 41.0 -- 41.5
03/13/2019 13:00 114.74 0.00 -- 40.0 -- 41.0
03/13/2019 12:00 114.74 0.00 -- 38.0 -- 41.3
03/13/2019 11:00 114.74 0.00 -- 38.0 -- 41.0
03/13/2019 10:00 114.74 0.00 -- 34.0 -- 41.0
03/13/2019 09:00 114.74 0.00 -- 29.0 -- 41.0
03/13/2019 08:00 114.74 0.00 -- 22.0 -- 41.0
03/13/2019 07:00 114.73 0.00 -- 20.0 -- 41.0
03/13/2019 06:00 114.74 0.00 -- 21.0 -- 41.0
03/13/2019 05:00 114.73 0.00 -- 22.0 -- 41.0
03/13/2019 04:00 114.73 0.00 -- 23.0 -- 41.0
03/13/2019 03:00 114.74 0.00 -- 24.0 -- 41.0
03/13/2019 02:00 114.74 0.00 -- 25.0 -- 41.0
03/13/2019 01:00 114.74 0.00 -- 27.0 -- 41.0
03/13/2019 00:00 114.73 0.00 0.00 30.0 -- 41.0
03/12/2019 23:00 114.73 0.00 -- 28.0 -- 41.0
03/12/2019 22:00 114.74 0.00 -- 30.0 -- 41.0
03/12/2019 21:00 114.74 0.00 -- 34.0 -- 41.3
03/12/2019 20:00 114.74 0.00 -- 33.0 -- 41.8
03/12/2019 19:00 114.75 0.00 -- 37.0 -- 42.0
03/12/2019 18:00 114.76 0.00 -- 40.0 -- 43.0
03/12/2019 17:00 114.76 0.00 -- 42.0 -- 43.0
03/12/2019 16:00 114.76 0.00 -- 41.0 -- 43.3
03/12/2019 15:00 114.77 -- -- 40.0 -- 43.5
03/12/2019 14:00 114.76 -- -- 40.0 -- 43.0
03/12/2019 13:00 114.77 0.00 -- 38.0 -- 43.8
03/12/2019 12:00 114.77 0.00 -- 37.0 -- 44.3
03/12/2019 11:00 114.78 0.00 -- 36.0 -- 44.5
03/12/2019 10:00 114.75 0.00 -- 35.0 -- 43.0
03/12/2019 09:00 114.75 0.00 -- 33.0 -- 42.0
03/12/2019 08:00 114.75 0.00 -- 32.0 -- 42.0
03/12/2019 07:00 114.75 0.00 -- 32.0 -- 42.0
03/12/2019 06:00 114.74 0.00 -- 33.0 -- 41.3
03/12/2019 05:00 114.73 0.00 -- 33.0 -- 40.8
03/12/2019 04:00 114.72 0.00 -- 34.0 -- 40.3
03/12/2019 03:00 114.73 0.00 -- 33.0 -- 40.3
03/12/2019 02:00 114.72 0.00 -- 34.0 -- 40.8
03/12/2019 01:00 114.73 0.00 -- 35.0 -- 41.0
03/12/2019 00:00 114.73 0.00 -- 36.0 -- 41.0
03/11/2019 23:00 114.73 0.00 -- 36.0 -- 41.0
03/11/2019 22:00 114.74 0.00 -- 37.0 -- 41.0
03/11/2019 21:00 114.74 0.00 -- 38.0 -- 41.0
03/11/2019 20:00 114.74 0.00 -- 39.0 -- 41.0
03/11/2019 19:00 114.74 0.00 -- 40.0 -- 42.0
03/11/2019 18:00 114.75 0.00 -- 42.0 -- 42.0
03/11/2019 17:00 114.75 0.00 -- 44.0 -- 42.3
03/11/2019 16:00 114.75 0.00 -- 44.0 -- 42.5
03/11/2019 15:00 114.75 0.00 -- 45.0 -- 42.0
03/11/2019 14:00 114.76 0.00 -- 45.0 -- 43.0
03/11/2019 13:00 114.76 0.01 -- 45.0 -- 43.3
03/11/2019 12:00 114.76 0.04 -- 44.0 -- 43.3
03/11/2019 11:00 114.75 0.09 -- 43.0 -- 41.0
03/11/2019 10:00 114.71 0.05 -- 43.0 -- 39.8
03/11/2019 09:00 114.70 0.02 -- 39.0 -- 39.5
03/11/2019 08:00 114.71 0.00 -- 38.0 -- 40.0
03/11/2019 07:00 114.71 0.01 -- 35.0 -- 40.0
03/11/2019 06:00 114.72 0.01 -- 37.0 -- 40.0
03/11/2019 05:00 114.72 0.01 -- 38.0 -- 40.8
03/11/2019 04:00 114.73 0.00 -- 36.0 -- 41.0
03/11/2019 03:00 114.74 0.01 -- 32.0 -- 42.0
03/11/2019 02:00 114.75 0.01 -- 33.0 -- 42.5
03/11/2019 01:00 114.76 0.02 -- 33.0 -- 43.0
03/11/2019 00:00 114.76 0.03 0.28 34.0 -- 43.0
03/10/2019 23:00 114.76 0.04 -- 35.0 -- 43.5
03/10/2019 22:00 114.77 0.04 -- 35.0 -- 43.5
03/10/2019 21:00 114.77 0.04 -- 35.0 -- 43.8
03/10/2019 20:00 114.78 0.06 -- 36.0 -- 44.3
03/10/2019 19:00 114.77 0.08 -- 38.0 -- 43.8
03/10/2019 18:00 114.76 0.09 -- 37.0 -- 43.0
03/10/2019 17:00 114.76 0.10 -- 35.0 -- 42.0
03/10/2019 16:00 114.71 0.01 -- 34.0 -- 37.5
03/10/2019 15:00 114.64 0.00 -- 33.0 -- 36.0
03/10/2019 14:00 114.63 0.00 -- 32.0 -- 36.0
03/10/2019 13:00 114.63 0.00 -- 32.0 -- 36.0
03/10/2019 12:00 114.63 0.00 -- 31.0 -- 36.0
03/10/2019 11:00 114.63 0.00 -- 30.0 -- 36.0
03/10/2019 10:00 114.63 0.00 -- 30.0 -- 36.0
03/10/2019 09:00 114.63 0.00 -- 33.0 -- 36.0
03/10/2019 08:00 114.64 0.00 -- 33.0 -- 36.0
03/10/2019 07:00 114.64 0.00 -- 32.0 -- 36.0
03/10/2019 06:00 -- -- -- 32.0 -- 36.3
03/10/2019 05:00 -- -- -- 32.0 -- 37.0
03/10/2019 04:00 -- -- -- 32.0 -- 37.0
03/10/2019 03:00 -- -- -- 24.0 -- 37.0
03/10/2019 02:00 -- -- -- 22.0 -- 37.0
03/10/2019 01:00 -- -- -- 22.0 -- 37.0
03/10/2019 00:00 -- -- 0.49 23.0 -- 37.0